Eielson Air Force Base Fairbanks US
ICAO: PAEI
IATA:
Category: Medium
Scheduled Services:

Elevation: 547 ft
TransAlt. 18000 ft.

Airport Communications:
FAIRBANKS APP:125.35
ASOS:118.525
ATIS:27.35
CLNC DEL:34.37
FAIRBANKS DEP:126.5
GND:121.8
RANGE CON:125.3
SOURDOUGH:139.6
IGLOO:25.95
PMSV METRO:34.66
CHENA CON:23.81
PTD:37.22
TWR:127.2

PAEI Zoom In..

Runways:

(A) RW 14 length 14530 ft width 150 ft
ILS 110.50 / hdg 136

(B) RW 32 length 14530 ft width 150 ft
ILS 109.90 / hdg 316

Location; PAEI
Day. 14 / Time. 13.41 Zulu
* Altimeter: 29.58
* Temperature: 11° c. 51.8°f.
* Wind from: 260° Speed 04 kn.
Dewpoint: 10° c.
Visibility: 10 Statute Miles.
Clouds: Scattered 600 ft.
Clouds: Scattered 2000 ft.
Clouds: Overcast 2900 ft.
Conditions: Light Rain.

PAEI 141341Z AUTO 26004KT 10SM -RA SCT006 SCT020 OVC029 11/10 A2958 RMK AO2 CIG 006V029 SLP020


Wind From 260°
Speed 04 kn.

 
 
jpsmedia.com for Web Design worldairports.se 2018   terms of use